Time;durP1;ratioP1;P1;durP2;ratioP2;P2;SDS_P1;SDS_P2;PMS_P1;PMS_P2;Temp;Humidity;BMP_temperature;BMP_pressure;BME280_temperature;BME280_humidity;BME280_pressure;Samples;Min_cycle;Max_cycle;Signal;HPM_P1;HPM_P2
2020/12/23 00:00:21;;;;;;;25.17;16.00;;;12.50;99.90;;;;;;4958957;28;20445;-72
2020/12/23 00:02:47;;;;;;;30.87;15.03;;;12.40;99.90;;;;;;4958457;28;20458;-73
2020/12/23 00:05:18;;;;;;;27.63;16.10;;;12.40;99.90;;;;;;4930540;28;20791;-72
2020/12/23 00:07:45;;;;;;;27.90;15.20;;;12.40;99.90;;;;;;4949829;28;20468;-73
2020/12/23 00:10:12;;;;;;;27.20;14.80;;;12.40;99.90;;;;;;4967145;28;20426;-73
2020/12/23 00:12:38;;;;;;;27.63;13.57;;;12.30;99.90;;;;;;4958603;28;20788;-73
2020/12/23 00:15:09;;;;;;;23.17;14.00;;;12.30;99.90;;;;;;4967525;28;20458;-72
2020/12/23 00:17:38;;;;;;;23.67;14.07;;;12.30;99.90;;;;;;4938658;28;20462;-73
2020/12/23 00:20:05;;;;;;;25.63;13.03;;;12.20;99.90;;;;;;4958604;28;20534;-72
2020/12/23 00:22:31;;;;;;;24.40;13.20;;;12.20;99.90;;;;;;4954260;28;20458;-72
2020/12/23 00:24:57;;;;;;;22.13;12.40;;;12.30;99.90;;;;;;4954000;28;20446;-72
2020/12/23 00:27:23;;;;;;;25.77;13.47;;;12.30;99.90;;;;;;4959403;28;20497;-72
2020/12/23 00:29:49;;;;;;;25.10;12.73;;;12.30;99.90;;;;;;4936277;28;20438;-72
2020/12/23 00:32:21;;;;;;;30.10;13.97;;;12.30;99.90;;;;;;4956653;28;20435;-72
2020/12/23 00:34:49;;;;;;;21.87;11.53;;;12.30;99.90;;;;;;4949564;28;20875;-72
2020/12/23 00:37:15;;;;;;;20.13;11.97;;;12.30;99.90;;;;;;4953149;28;20540;-72
2020/12/23 00:39:41;;;;;;;31.17;13.13;;;12.30;99.90;;;;;;4957306;28;20917;-72
2020/12/23 00:42:08;;;;;;;26.77;11.57;;;12.30;99.90;;;;;;4965640;28;20429;-72
2020/12/23 00:44:34;;;;;;;21.70;11.53;;;12.30;99.90;;;;;;4965712;28;20937;-72
2020/12/23 00:47:05;;;;;;;27.17;11.80;;;12.30;99.90;;;;;;4969709;28;20481;-72
2020/12/23 00:49:31;;;;;;;21.47;11.23;;;12.30;99.90;;;;;;4966960;28;20455;-72
2020/12/23 00:51:59;;;;;;;20.53;11.70;;;12.30;99.90;;;;;;4947175;28;20434;-72
2020/12/23 00:54:28;;;;;;;21.90;11.73;;;12.30;99.90;;;;;;4961757;28;20437;-72
2020/12/23 00:56:56;;;;;;;27.73;12.90;;;12.30;99.90;;;;;;4968831;28;20462;-72
2020/12/23 00:59:24;;;;;;;20.43;12.20;;;12.30;99.90;;;;;;4949723;28;20513;-72
2020/12/23 01:01:58;;;;;;;24.97;12.20;;;12.20;99.90;;;;;;4965317;28;20435;-72
2020/12/23 01:04:25;;;;;;;25.20;13.17;;;12.20;99.90;;;;;;4968920;28;20433;-72
2020/12/23 01:06:54;;;;;;;25.50;11.30;;;12.20;99.90;;;;;;4958830;28;20474;-72
2020/12/23 01:09:20;;;;;;;22.27;11.93;;;12.20;99.90;;;;;;4961187;28;20486;-72
2020/12/23 01:11:53;;;;;;;22.10;11.77;;;12.20;99.90;;;;;;4947164;28;20438;-72
2020/12/23 01:14:19;;;;;;;25.73;12.13;;;12.20;99.90;;;;;;4970905;28;20437;-72
2020/12/23 01:16:48;;;;;;;28.80;12.00;;;12.20;99.90;;;;;;4938430;29;20466;-72
2020/12/23 01:19:17;;;;;;;18.30;11.10;;;12.20;99.90;;;;;;4947472;28;20444;-72
2020/12/23 01:21:48;;;;;;;21.43;11.73;;;12.20;99.90;;;;;;4952270;28;20471;-72
2020/12/23 01:24:14;;;;;;;20.57;11.43;;;12.20;99.90;;;;;;4949845;29;21052;-72
2020/12/23 01:26:42;;;;;;;20.40;11.80;;;12.20;99.90;;;;;;4953431;28;20462;-72
2020/12/23 01:29:08;;;;;;;21.50;12.23;;;12.20;99.90;;;;;;4956473;28;20843;-72
2020/12/23 01:31:42;;;;;;;20.33;10.80;;;12.20;99.90;;;;;;4938101;28;20868;-72
2020/12/23 01:34:09;;;;;;;20.90;12.67;;;12.20;99.90;;;;;;4961952;28;20546;-72
2020/12/23 01:36:35;;;;;;;20.10;11.90;;;12.20;99.90;;;;;;4920498;28;20467;-72
2020/12/23 01:39:01;;;;;;;17.87;10.93;;;12.20;99.90;;;;;;4946140;28;20512;-72
2020/12/23 01:41:27;;;;;;;20.70;12.97;;;12.20;99.90;;;;;;4946451;28;20438;-72
2020/12/23 01:43:57;;;;;;;17.80;11.50;;;12.30;99.90;;;;;;4954849;28;20590;-72
2020/12/23 01:46:32;;;;;;;18.20;10.93;;;12.30;99.90;;;;;;4941521;28;20454;-72
2020/12/23 01:49:02;;;;;;;18.30;11.07;;;12.30;99.90;;;;;;4953975;28;20478;-72
2020/12/23 01:51:28;;;;;;;23.20;11.30;;;12.30;99.90;;;;;;4965600;28;20500;-72
2020/12/23 01:53:57;;;;;;;20.43;11.10;;;12.30;99.90;;;;;;4954150;28;20434;-72
2020/12/23 01:56:23;;;;;;;16.73;11.27;;;12.30;99.90;;;;;;4950831;28;20475;-72
2020/12/23 01:58:55;;;;;;;20.90;11.37;;;12.30;99.90;;;;;;4961858;28;20523;-72
2020/12/23 02:01:27;;;;;;;19.17;11.77;;;12.30;99.90;;;;;;4971079;28;20868;-72
2020/12/23 02:03:55;;;;;;;21.10;10.90;;;12.30;99.90;;;;;;4955857;28;20507;-72
2020/12/23 02:06:21;;;;;;;23.90;10.40;;;12.40;99.90;;;;;;4969813;28;20454;-72
2020/12/23 02:08:51;;;;;;;18.67;10.47;;;12.40;99.90;;;;;;4937871;28;20475;-72
2020/12/23 02:11:22;;;;;;;20.50;10.83;;;12.40;99.90;;;;;;4968887;28;20943;-72
2020/12/23 02:13:50;;;;;;;22.80;11.73;;;12.40;99.90;;;;;;4945684;28;20427;-72
2020/12/23 02:16:18;;;;;;;19.37;10.73;;;12.30;99.90;;;;;;4965239;28;20546;-72
2020/12/23 02:18:49;;;;;;;18.10;10.67;;;12.40;99.90;;;;;;4959343;28;20498;-72
2020/12/23 02:21:18;;;;;;;19.97;11.97;;;12.40;99.90;;;;;;4955661;28;20439;-72
2020/12/23 02:23:46;;;;;;;19.00;10.47;;;12.40;99.90;;;;;;4956144;28;20430;-72
2020/12/23 02:26:12;;;;;;;18.17;9.87;;;12.40;99.90;;;;;;4935520;29;20502;-72
2020/12/23 02:28:44;;;;;;;21.43;11.23;;;12.40;99.90;;;;;;4959726;28;20490;-72
2020/12/23 02:31:10;;;;;;;17.93;11.17;;;12.30;99.90;;;;;;4955719;28;20529;-72
2020/12/23 02:33:38;;;;;;;17.60;11.37;;;12.30;99.90;;;;;;4964740;28;20435;-72
2020/12/23 02:36:04;;;;;;;22.37;12.40;;;12.30;99.90;;;;;;4968669;28;20453;-72
2020/12/23 02:38:30;;;;;;;17.60;11.87;;;12.30;99.90;;;;;;4961553;28;21189;-72
2020/12/23 02:40:56;;;;;;;17.80;11.97;;;12.40;99.90;;;;;;4969342;28;20932;-72
2020/12/23 02:43:25;;;;;;;19.30;11.83;;;12.30;99.90;;;;;;4936155;29;20436;-72
2020/12/23 02:45:51;;;;;;;15.77;10.63;;;12.30;99.90;;;;;;4957996;28;20464;-72
2020/12/23 02:48:20;;;;;;;23.73;12.70;;;12.30;99.90;;;;;;4943267;28;20470;-72
2020/12/23 02:50:48;;;;;;;21.53;13.20;;;12.30;99.90;;;;;;4969957;28;20457;-72
2020/12/23 02:53:16;;;;;;;19.57;12.20;;;12.30;99.90;;;;;;4926518;28;20527;-72
2020/12/23 02:55:43;;;;;;;20.07;13.17;;;12.30;99.90;;;;;;4936684;28;20454;-72
2020/12/23 02:58:11;;;;;;;20.90;12.70;;;12.20;99.90;;;;;;4968604;28;20854;-72
2020/12/23 03:00:37;;;;;;;19.77;13.30;;;12.20;99.90;;;;;;4968847;28;20473;-72
2020/12/23 03:03:03;;;;;;;22.30;13.57;;;12.20;99.90;;;;;;4953329;28;20813;-72
2020/12/23 03:05:29;;;;;;;19.23;13.27;;;12.20;99.90;;;;;;4967251;28;20466;-72
2020/12/23 03:07:57;;;;;;;19.53;12.20;;;12.20;99.90;;;;;;4934098;29;20482;-72
2020/12/23 03:10:32;;;;;;;21.87;12.60;;;12.20;99.90;;;;;;4966747;28;20454;-72
2020/12/23 03:13:02;;;;;;;20.97;13.60;;;12.20;99.90;;;;;;4934033;28;20533;-71
2020/12/23 03:15:31;;;;;;;18.43;12.30;;;12.20;99.90;;;;;;4968927;28;20505;-72
2020/12/23 03:17:57;;;;;;;21.30;13.53;;;12.20;99.90;;;;;;4937876;29;20451;-72
2020/12/23 03:20:23;;;;;;;18.50;12.87;;;12.20;99.90;;;;;;4964555;28;20956;-72
2020/12/23 03:22:49;;;;;;;20.27;13.00;;;12.20;99.90;;;;;;4946870;28;20450;-72
2020/12/23 03:25:21;;;;;;;22.33;13.87;;;12.20;99.90;;;;;;4957759;28;20527;-72
2020/12/23 03:27:47;;;;;;;18.97;13.77;;;12.20;99.90;;;;;;4967173;28;20467;-72
2020/12/23 03:30:15;;;;;;;22.53;13.50;;;12.20;99.90;;;;;;4963828;28;20447;-72
2020/12/23 03:32:44;;;;;;;22.30;13.93;;;12.20;99.90;;;;;;4968754;28;20517;-72
2020/12/23 03:35:12;;;;;;;17.80;11.17;;;12.20;99.90;;;;;;4936437;29;20550;-72
2020/12/23 03:37:38;;;;;;;23.40;13.10;;;12.20;99.90;;;;;;4957541;28;20527;-72
2020/12/23 03:40:07;;;;;;;17.20;12.00;;;12.20;99.90;;;;;;4958427;28;20434;-73
2020/12/23 03:42:33;;;;;;;20.03;11.23;;;12.20;99.90;;;;;;4942673;29;20774;-72
2020/12/23 03:45:02;;;;;;;21.00;13.10;;;12.20;99.90;;;;;;4952671;28;20427;-72
2020/12/23 03:47:30;;;;;;;21.17;12.70;;;12.20;99.90;;;;;;4959838;28;20489;-73
2020/12/23 03:49:58;;;;;;;20.23;13.07;;;12.20;99.90;;;;;;4937383;29;20533;-73
2020/12/23 03:52:24;;;;;;;25.73;13.10;;;12.20;99.90;;;;;;4963406;28;21023;-73
2020/12/23 03:54:50;;;;;;;20.10;12.97;;;12.20;99.90;;;;;;4968233;28;20565;-73
2020/12/23 03:57:19;;;;;;;18.00;12.00;;;12.20;99.90;;;;;;4943606;29;20985;-72
2020/12/23 03:59:47;;;;;;;24.80;14.13;;;12.20;99.90;;;;;;4949923;28;20970;-73
2020/12/23 04:02:16;;;;;;;22.23;14.13;;;12.20;99.90;;;;;;4954976;28;20526;-72
2020/12/23 04:04:42;;;;;;;25.00;13.30;;;12.20;99.90;;;;;;4969923;28;20542;-73
2020/12/23 04:07:11;;;;;;;23.10;13.30;;;12.20;99.90;;;;;;4929785;29;20505;-73
2020/12/23 04:09:37;;;;;;;19.77;11.73;;;12.20;99.90;;;;;;4970069;28;20458;-72
2020/12/23 04:12:03;;;;;;;21.23;14.10;;;12.20;99.90;;;;;;4971386;28;20427;-73
2020/12/23 04:14:33;;;;;;;17.63;11.80;;;12.20;99.90;;;;;;4949418;28;20442;-73
2020/12/23 04:16:59;;;;;;;20.70;12.50;;;12.20;99.90;;;;;;4941394;29;20447;-73
2020/12/23 04:19:33;;;;;;;21.50;13.13;;;12.20;99.90;;;;;;4941266;28;20939;-73
2020/12/23 04:22:00;;;;;;;20.77;12.93;;;12.20;99.90;;;;;;4960416;28;20530;-73
2020/12/23 04:24:30;;;;;;;22.37;11.70;;;12.20;99.90;;;;;;4958869;28;20438;-72
2020/12/23 04:27:00;;;;;;;20.10;12.17;;;12.20;99.90;;;;;;4957567;28;20453;-72
2020/12/23 04:29:29;;;;;;;23.20;12.97;;;12.20;99.90;;;;;;4953660;28;21680;-73
2020/12/23 04:31:57;;;;;;;21.80;12.27;;;12.20;99.90;;;;;;4961760;28;20965;-73
2020/12/23 04:34:24;;;;;;;17.07;12.13;;;12.20;99.90;;;;;;4969019;28;20427;-73
2020/12/23 04:36:52;;;;;;;20.90;12.80;;;12.20;99.90;;;;;;4933037;28;20455;-73
2020/12/23 04:39:21;;;;;;;19.07;11.53;;;12.20;99.90;;;;;;4922846;29;20445;-72
2020/12/23 04:41:47;;;;;;;18.37;10.90;;;12.20;99.90;;;;;;4962160;28;20450;-73
2020/12/23 04:44:16;;;;;;;17.93;9.87;;;12.20;99.90;;;;;;4928874;28;20527;-73
2020/12/23 04:46:44;;;;;;;18.70;10.50;;;12.20;99.90;;;;;;4944644;28;20462;-72
2020/12/23 04:49:10;;;;;;;13.40;9.33;;;12.20;99.90;;;;;;4943219;28;20462;-73
2020/12/23 04:51:39;;;;;;;17.90;10.30;;;12.20;99.90;;;;;;4943606;28;20905;-73
2020/12/23 04:54:10;;;;;;;14.60;9.67;;;12.20;99.90;;;;;;4942622;28;20427;-73
2020/12/23 04:56:39;;;;;;;15.57;10.40;;;12.20;99.90;;;;;;4946089;28;20470;-72
2020/12/23 04:59:07;;;;;;;16.87;9.97;;;12.20;99.90;;;;;;4942544;28;20467;-73
2020/12/23 05:01:35;;;;;;;15.60;8.97;;;12.20;99.90;;;;;;4941699;28;20499;-73
2020/12/23 05:04:02;;;;;;;16.17;7.90;;;12.20;99.90;;;;;;4960510;28;20939;-73
2020/12/23 05:06:28;;;;;;;14.93;7.90;;;12.20;99.90;;;;;;4969039;28;20465;-73
2020/12/23 05:08:54;;;;;;;11.00;7.87;;;12.30;99.90;;;;;;4958452;28;20995;-73
2020/12/23 05:11:23;;;;;;;12.67;7.60;;;12.20;99.90;;;;;;4943827;28;20487;-73
2020/12/23 05:13:49;;;;;;;17.57;7.33;;;12.20;99.90;;;;;;4960563;28;20443;-73
2020/12/23 05:16:23;;;;;;;9.43;6.63;;;12.20;99.90;;;;;;4966364;28;20454;-73
2020/12/23 05:18:56;;;;;;;9.57;6.77;;;12.20;99.90;;;;;;4962896;28;20430;-73
2020/12/23 05:21:23;;;;;;;11.63;6.30;;;12.20;99.90;;;;;;4963935;28;20514;-73
2020/12/23 05:23:53;;;;;;;16.20;7.13;;;12.20;99.90;;;;;;4960722;28;20494;-73
2020/12/23 05:26:21;;;;;;;9.67;6.30;;;12.20;99.90;;;;;;4935489;28;20439;-73
2020/12/23 05:28:48;;;;;;;13.80;6.47;;;12.30;99.90;;;;;;4943176;28;20969;-73
2020/12/23 05:31:17;;;;;;;9.70;6.50;;;12.30;99.90;;;;;;4959118;28;20439;-73
2020/12/23 05:33:49;;;;;;;11.30;7.47;;;12.30;99.90;;;;;;4965507;28;20427;-73
2020/12/23 05:36:18;;;;;;;11.43;7.43;;;12.30;99.90;;;;;;4966249;28;20474;-73
2020/12/23 05:38:46;;;;;;;7.80;5.90;;;12.40;99.90;;;;;;4947324;28;20438;-73
2020/12/23 05:41:15;;;;;;;9.23;5.80;;;12.30;99.90;;;;;;4961823;28;20429;-73
2020/12/23 05:43:44;;;;;;;9.90;6.37;;;12.30;99.90;;;;;;4968976;28;20488;-73
2020/12/23 05:46:13;;;;;;;8.20;6.53;;;12.30;99.90;;;;;;4961717;28;20450;-73
2020/12/23 05:48:41;;;;;;;8.37;6.73;;;12.30;99.90;;;;;;4960363;28;20478;-73
2020/12/23 05:51:13;;;;;;;10.93;6.70;;;12.30;99.90;;;;;;4959565;28;20929;-73
2020/12/23 05:53:40;;;;;;;7.90;5.73;;;12.30;99.90;;;;;;4939613;28;20484;-72
2020/12/23 05:56:11;;;;;;;9.93;6.73;;;12.30;99.90;;;;;;4961004;28;21527;-73
2020/12/23 05:58:38;;;;;;;9.80;6.80;;;12.20;99.90;;;;;;4959637;28;21071;-73
2020/12/23 06:01:09;;;;;;;9.53;6.37;;;12.20;99.90;;;;;;4955473;28;20442;-73
2020/12/23 06:03:54;;;;;;;10.00;6.43;;;12.20;99.90;;;;;;4968366;28;20454;-73
2020/12/23 06:06:25;;;;;;;11.90;6.03;;;12.20;99.90;;;;;;4960973;28;20468;-73
2020/12/23 06:09:05;;;;;;;9.47;6.80;;;12.20;99.90;;;;;;4954542;28;20464;-73
2020/12/23 06:12:05;;;;;;;10.43;6.90;;;12.20;99.90;;;;;;4970018;28;20462;-73
2020/12/23 06:14:42;;;;;;;13.87;7.83;;;12.10;99.90;;;;;;4946123;28;20437;-73
2020/12/23 06:17:16;;;;;;;11.97;8.10;;;12.10;99.90;;;;;;4966623;28;20558;-73
2020/12/23 06:19:46;;;;;;;10.23;7.50;;;12.20;99.90;;;;;;4937928;28;20466;-73
2020/12/23 06:22:12;;;;;;;12.80;9.07;;;12.20;99.90;;;;;;4968031;28;20439;-73
2020/12/23 06:24:38;;;;;;;16.57;9.30;;;12.20;99.90;;;;;;4953745;28;20432;-73
2020/12/23 06:27:06;;;;;;;14.13;9.13;;;12.20;99.90;;;;;;4937860;28;20466;-73
2020/12/23 06:29:37;;;;;;;14.77;8.30;;;12.10;99.90;;;;;;4960768;28;20474;-73
2020/12/23 06:32:10;;;;;;;10.87;8.30;;;12.10;99.90;;;;;;4964328;28;20564;-73
2020/12/23 06:34:39;;;;;;;11.53;7.43;;;12.10;99.90;;;;;;4961180;28;20443;-73
2020/12/23 06:37:23;;;;;;;10.30;6.73;;;12.10;99.90;;;;;;4955001;28;21024;-73
2020/12/23 06:39:53;;;;;;;9.53;6.80;;;12.10;99.90;;;;;;4952075;28;20502;-73
2020/12/23 06:42:21;;;;;;;9.40;6.60;;;12.20;99.90;;;;;;4958206;28;20863;-73
2020/12/23 06:45:05;;;;;;;11.93;6.40;;;12.10;99.90;;;;;;4964785;28;20521;-73
2020/12/23 06:47:36;;;;;;;8.47;6.70;;;12.20;99.90;;;;;;4945595;28;20455;-73
2020/12/23 06:50:35;;;;;;;9.27;6.87;;;12.20;99.90;;;;;;4956963;28;20443;-73
2020/12/23 06:53:04;;;;;;;10.50;6.50;;;12.20;99.90;;;;;;4952358;28;21006;-73
2020/12/23 06:55:47;;;;;;;11.10;7.83;;;12.30;99.90;;;;;;4944935;28;20477;-73
2020/12/23 06:58:39;;;;;;;10.93;8.27;;;12.30;99.90;;;;;;4961986;28;20445;-73
2020/12/23 07:01:21;;;;;;;12.80;8.30;;;12.30;99.90;;;;;;4967667;28;20419;-73
2020/12/23 07:03:48;;;;;;;10.40;8.67;;;12.30;99.90;;;;;;4960063;28;20426;-73
2020/12/23 07:06:31;;;;;;;12.07;8.67;;;12.30;99.90;;;;;;4947280;29;20887;-72
2020/12/23 07:09:01;;;;;;;13.40;9.63;;;12.30;99.90;;;;;;4960002;28;20551;-72
2020/12/23 07:11:33;;;;;;;12.97;9.53;;;12.30;99.90;;;;;;4970471;28;20485;-73
2020/12/23 07:13:59;;;;;;;11.00;8.50;;;12.20;99.90;;;;;;4966389;28;20426;-73
2020/12/23 07:16:25;;;;;;;10.53;8.83;;;12.20;99.90;;;;;;4966553;28;20454;-73
2020/12/23 07:18:57;;;;;;;11.23;9.50;;;12.30;99.90;;;;;;4948572;28;20434;-73
2020/12/23 07:21:25;;;;;;;11.70;8.90;;;12.30;99.90;;;;;;4957590;28;20438;-73
2020/12/23 07:23:56;;;;;;;10.17;8.40;;;12.30;99.90;;;;;;4957973;28;20520;-73
2020/12/23 07:26:24;;;;;;;10.63;8.27;;;12.20;99.90;;;;;;4947369;28;20455;-73
2020/12/23 07:28:52;;;;;;;12.30;9.20;;;12.30;99.90;;;;;;4942285;28;20460;-73
2020/12/23 07:31:24;;;;;;;11.93;8.83;;;12.30;99.90;;;;;;4940560;28;20455;-73
2020/12/23 07:33:53;;;;;;;11.37;8.23;;;12.30;99.90;;;;;;4928815;28;20458;-73
2020/12/23 07:36:19;;;;;;;13.30;9.70;;;12.30;99.90;;;;;;4957202;28;20410;-73
2020/12/23 07:38:52;;;;;;;10.37;8.87;;;12.30;99.90;;;;;;4963638;28;20195;-73
2020/12/23 07:41:20;;;;;;;10.07;8.33;;;12.30;99.90;;;;;;4949946;28;20934;-73
2020/12/23 07:43:47;;;;;;;13.03;9.17;;;12.30;99.90;;;;;;4960222;28;20435;-74
2020/12/23 07:46:13;;;;;;;9.13;7.80;;;12.30;99.90;;;;;;4966065;28;20464;-73
2020/12/23 07:48:39;;;;;;;12.40;9.83;;;12.20;99.90;;;;;;4960807;28;20462;-73
2020/12/23 07:51:11;;;;;;;16.40;10.50;;;12.20;99.90;;;;;;4961655;28;20508;-73
2020/12/23 07:53:37;;;;;;;9.27;7.77;;;12.20;99.90;;;;;;4959557;28;20423;-74
2020/12/23 07:56:06;;;;;;;11.97;8.47;;;12.20;99.90;;;;;;4961382;28;20489;-73
2020/12/23 07:58:35;;;;;;;10.47;7.30;;;12.10;99.90;;;;;;4953189;28;20506;-75
2020/12/23 08:01:11;;;;;;;10.00;8.00;;;12.10;99.90;;;;;;4966695;28;20441;-74
2020/12/23 08:03:40;;;;;;;12.00;7.20;;;12.10;99.90;;;;;;4946779;28;20512;-75
2020/12/23 08:06:08;;;;;;;9.80;7.50;;;12.10;99.90;;;;;;4955980;28;20569;-75
2020/12/23 08:08:35;;;;;;;8.73;6.53;;;12.10;99.90;;;;;;4945494;28;20466;-75
2020/12/23 08:11:08;;;;;;;9.60;7.97;;;12.10;99.90;;;;;;4968722;28;20434;-75
2020/12/23 08:13:41;;;;;;;9.73;8.00;;;12.10;99.90;;;;;;4946747;28;21994;-75
2020/12/23 08:16:12;;;;;;;10.53;7.97;;;12.10;99.90;;;;;;4954390;28;20482;-76
2020/12/23 08:18:40;;;;;;;14.93;8.83;;;12.10;99.90;;;;;;4953875;28;20917;-76
2020/12/23 08:21:19;;;;;;;12.17;8.37;;;12.10;99.90;;;;;;4958048;28;20458;-76
2020/12/23 08:23:46;;;;;;;10.23;7.03;;;12.10;99.90;;;;;;4971803;28;20566;-76
2020/12/23 08:26:15;;;;;;;13.83;8.40;;;12.10;99.90;;;;;;4958624;28;20808;-75
2020/12/23 08:28:43;;;;;;;9.40;8.13;;;12.10;99.90;;;;;;4970884;28;20544;-75
2020/12/23 08:31:16;;;;;;;13.03;7.50;;;12.10;99.90;;;;;;4942499;28;20451;-74
2020/12/23 08:33:48;;;;;;;9.37;7.03;;;12.20;99.90;;;;;;4958045;28;20805;-75
2020/12/23 08:36:21;;;;;;;10.07;8.40;;;12.20;99.90;;;;;;4953803;28;20458;-75
2020/12/23 08:38:49;;;;;;;9.80;7.37;;;12.20;99.90;;;;;;4949988;28;20437;-75
2020/12/23 08:41:20;;;;;;;11.47;7.40;;;12.20;99.90;;;;;;4957856;28;20959;-74
2020/12/23 08:43:49;;;;;;;8.53;7.13;;;12.20;99.90;;;;;;4955637;28;20504;-74
2020/12/23 08:46:23;;;;;;;10.77;7.23;;;12.20;99.90;;;;;;4944241;28;20453;-74
2020/12/23 08:48:50;;;;;;;9.43;6.87;;;12.30;99.90;;;;;;4952489;28;20497;-74
2020/12/23 08:51:23;;;;;;;11.63;7.63;;;12.30;99.90;;;;;;4916154;28;20494;-74
2020/12/23 08:53:54;;;;;;;8.43;6.20;;;12.30;99.90;;;;;;4947686;28;20432;-74
2020/12/23 08:56:33;;;;;;;8.50;6.60;;;12.40;99.90;;;;;;4954282;28;20514;-74
2020/12/23 08:59:04;;;;;;;7.93;7.10;;;12.40;99.90;;;;;;4955522;28;20434;-75
2020/12/23 09:01:31;;;;;;;9.97;6.93;;;12.40;99.90;;;;;;4949829;28;20939;-75
2020/12/23 09:04:05;;;;;;;9.47;7.80;;;12.40;99.90;;;;;;4962982;28;20450;-75
2020/12/23 09:06:35;;;;;;;7.97;6.50;;;12.30;99.90;;;;;;4944561;28;20832;-74
2020/12/23 09:09:13;;;;;;;12.20;7.50;;;12.40;99.90;;;;;;4959120;28;20513;-74
2020/12/23 09:11:52;;;;;;;11.73;7.83;;;12.40;99.90;;;;;;4939851;28;20845;-75
2020/12/23 09:14:34;;;;;;;10.60;7.47;;;12.50;99.90;;;;;;4956319;28;20564;-75
2020/12/23 09:17:22;;;;;;;8.90;7.00;;;12.50;99.90;;;;;;4960667;28;20498;-75
2020/12/23 09:19:52;;;;;;;10.40;6.87;;;12.60;99.90;;;;;;4956297;28;20806;-74
2020/12/23 09:22:30;;;;;;;8.90;6.63;;;12.60;99.90;;;;;;4934627;28;20447;-74
2020/12/23 09:25:21;;;;;;;8.77;6.33;;;12.70;99.90;;;;;;4958089;28;20932;-74
2020/12/23 09:27:54;;;;;;;9.93;6.80;;;12.70;99.90;;;;;;4959823;28;21197;-74
2020/12/23 09:30:33;;;;;;;8.93;6.27;;;12.70;99.90;;;;;;4949118;28;20433;-74
2020/12/23 09:32:59;;;;;;;8.83;6.77;;;12.70;99.90;;;;;;4938527;28;20492;-74
2020/12/23 09:35:27;;;;;;;7.80;6.80;;;12.70;99.90;;;;;;4957282;28;20443;-74
2020/12/23 09:38:06;;;;;;;7.03;6.30;;;12.80;99.90;;;;;;4946975;28;20467;-74
2020/12/23 09:40:43;;;;;;;8.80;6.57;;;12.80;99.90;;;;;;4957130;28;20805;-74
2020/12/23 09:43:12;;;;;;;7.37;6.03;;;12.80;99.90;;;;;;4957154;28;20488;-74
2020/12/23 09:45:41;;;;;;;9.37;6.30;;;12.80;99.90;;;;;;4953369;28;20460;-74
2020/12/23 09:48:10;;;;;;;8.33;5.80;;;12.80;99.90;;;;;;4961224;28;21267;-74
2020/12/23 09:50:36;;;;;;;8.27;6.20;;;12.80;99.90;;;;;;4960235;28;20427;-74
2020/12/23 09:53:08;;;;;;;7.33;5.50;;;12.80;99.90;;;;;;4944398;28;20438;-75
2020/12/23 09:55:34;;;;;;;6.97;6.10;;;12.90;99.90;;;;;;4960139;28;20964;-74
2020/12/23 09:58:00;;;;;;;6.90;6.10;;;12.90;99.90;;;;;;4948320;28;20471;-74
2020/12/23 10:00:27;;;;;;;7.90;6.00;;;12.90;99.90;;;;;;4951594;28;20781;-74
2020/12/23 10:02:58;;;;;;;7.17;6.43;;;13.00;99.90;;;;;;4951278;28;20446;-75
2020/12/23 10:05:29;;;;;;;9.23;6.87;;;13.00;99.90;;;;;;4957701;28;20431;-74
2020/12/23 10:08:00;;;;;;;7.77;6.60;;;13.00;99.90;;;;;;4953199;28;20466;-75
2020/12/23 10:10:27;;;;;;;6.93;6.23;;;13.10;99.90;;;;;;4940943;28;20443;-74
2020/12/23 10:13:00;;;;;;;7.57;5.87;;;13.10;99.90;;;;;;4953203;28;20441;-74
2020/12/23 10:15:27;;;;;;;8.10;6.37;;;13.20;99.90;;;;;;4947405;28;20454;-74
2020/12/23 10:17:57;;;;;;;8.73;6.37;;;13.20;99.90;;;;;;4964672;28;20952;-74
2020/12/23 10:20:24;;;;;;;7.20;6.50;;;13.20;99.90;;;;;;4941646;28;20533;-74
2020/12/23 10:22:55;;;;;;;9.60;6.97;;;13.20;99.90;;;;;;4937195;28;20514;-75
2020/12/23 10:25:22;;;;;;;9.77;6.23;;;13.20;99.90;;;;;;4956210;28;20538;-73
2020/12/23 10:27:50;;;;;;;6.57;5.97;;;13.20;99.90;;;;;;4934572;28;20464;-75
2020/12/23 10:30:16;;;;;;;6.80;6.07;;;13.20;99.90;;;;;;4955708;28;20435;-75
2020/12/23 10:32:44;;;;;;;7.23;5.80;;;13.20;99.90;;;;;;4934795;28;20454;-74
2020/12/23 10:35:15;;;;;;;5.97;4.97;;;13.30;99.90;;;;;;4945002;28;20503;-74
2020/12/23 10:37:46;;;;;;;6.00;5.40;;;13.30;99.90;;;;;;4951333;28;20486;-75
2020/12/23 10:40:17;;;;;;;6.53;5.93;;;13.30;99.90;;;;;;4946888;28;20543;-74
2020/12/23 10:42:48;;;;;;;7.20;5.60;;;13.20;99.90;;;;;;4953060;28;20506;-74
2020/12/23 10:45:14;;;;;;;7.47;5.30;;;13.20;99.90;;;;;;4952942;28;20539;-73
2020/12/23 10:47:40;;;;;;;6.57;5.23;;;13.20;99.90;;;;;;4958229;28;20427;-74
2020/12/23 10:50:08;;;;;;;5.50;4.87;;;13.20;99.90;;;;;;4947625;28;20492;-74
2020/12/23 10:52:37;;;;;;;5.70;4.33;;;13.20;99.90;;;;;;4946817;28;20455;-74
2020/12/23 10:55:05;;;;;;;7.10;4.40;;;13.20;99.90;;;;;;4927674;28;20447;-74
2020/12/23 10:57:33;;;;;;;7.00;4.47;;;13.20;99.90;;;;;;4941366;28;20510;-74
2020/12/23 11:00:02;;;;;;;4.53;4.00;;;13.20;99.90;;;;;;4927789;28;21005;-74
2020/12/23 11:02:28;;;;;;;6.53;4.23;;;13.20;99.90;;;;;;4960914;28;20450;-74
2020/12/23 11:04:54;;;;;;;5.17;3.63;;;13.20;99.90;;;;;;4929048;28;20946;-74
2020/12/23 11:07:24;;;;;;;4.30;3.90;;;13.20;99.90;;;;;;4928769;28;20447;-74
2020/12/23 11:09:52;;;;;;;6.70;4.77;;;13.20;99.90;;;;;;4954714;28;20436;-74
2020/12/23 11:12:20;;;;;;;5.10;4.40;;;13.20;99.90;;;;;;4916069;28;20444;-74
2020/12/23 11:14:47;;;;;;;5.00;4.10;;;13.20;99.90;;;;;;4946607;28;20435;-74
2020/12/23 11:17:21;;;;;;;5.60;3.70;;;13.30;99.90;;;;;;4952111;28;20456;-75
2020/12/23 11:19:50;;;;;;;4.73;4.33;;;13.30;99.90;;;;;;4952837;28;21122;-75
2020/12/23 11:22:16;;;;;;;7.27;4.57;;;13.30;99.90;;;;;;4953089;28;20498;-75
2020/12/23 11:24:44;;;;;;;5.10;4.13;;;13.30;99.90;;;;;;4940133;28;20982;-75
2020/12/23 11:27:10;;;;;;;7.47;3.90;;;13.30;99.90;;;;;;4945168;28;20513;-75
2020/12/23 11:29:36;;;;;;;5.70;4.43;;;13.30;99.90;;;;;;4954768;28;20505;-75
2020/12/23 11:32:03;;;;;;;4.80;4.30;;;13.40;99.90;;;;;;4948350;28;20471;-75
2020/12/23 11:34:29;;;;;;;6.03;3.93;;;13.30;99.90;;;;;;4939865;28;20522;-76
2020/12/23 11:37:00;;;;;;;5.63;3.93;;;13.30;99.90;;;;;;4957042;28;20487;-75
2020/12/23 11:39:29;;;;;;;5.10;4.60;;;13.20;99.90;;;;;;4960715;28;20443;-76
2020/12/23 11:41:56;;;;;;;4.07;3.53;;;13.20;99.90;;;;;;4964265;28;20438;-76
2020/12/23 11:44:25;;;;;;;4.97;4.47;;;13.10;99.90;;;;;;4953345;28;20459;-75
2020/12/23 11:46:54;;;;;;;6.33;3.93;;;13.10;99.90;;;;;;4959046;28;20493;-75
2020/12/23 11:49:21;;;;;;;6.37;4.30;;;13.10;99.90;;;;;;4948809;28;20474;-74
2020/12/23 11:51:53;;;;;;;5.17;4.50;;;13.10;99.90;;;;;;4934723;29;20510;-77
2020/12/23 11:54:21;;;;;;;7.00;4.23;;;13.10;99.90;;;;;;4936886;28;20531;-76
2020/12/23 11:56:50;;;;;;;6.77;4.37;;;13.10;99.90;;;;;;4941465;28;20596;-78
2020/12/23 11:59:22;;;;;;;5.30;4.07;;;13.00;99.90;;;;;;4953793;28;20439;-77
2020/12/23 12:01:55;;;;;;;6.63;5.00;;;13.00;99.90;;;;;;4962795;28;20518;-76
2020/12/23 12:04:22;;;;;;;5.40;4.43;;;12.90;99.90;;;;;;4955025;28;20454;-77
2020/12/23 12:06:53;;;;;;;5.80;4.40;;;12.90;99.90;;;;;;4946744;28;20518;-76
2020/12/23 12:09:20;;;;;;;8.40;6.20;;;12.80;99.90;;;;;;4961130;28;20463;-78
2020/12/23 12:11:48;;;;;;;7.20;5.10;;;12.70;99.90;;;;;;4954091;28;20486;-77
2020/12/23 12:14:16;;;;;;;5.77;5.00;;;12.70;99.90;;;;;;4956200;28;20442;-76
2020/12/23 12:16:48;;;;;;;6.73;5.60;;;12.70;99.90;;;;;;4955427;28;20957;-76
2020/12/23 12:19:14;;;;;;;7.33;4.80;;;12.70;99.90;;;;;;4927080;28;20802;-75
2020/12/23 12:21:43;;;;;;;5.53;3.97;;;12.70;99.90;;;;;;4921674;28;20517;-75
2020/12/23 12:24:11;;;;;;;4.00;3.40;;;12.70;99.90;;;;;;4950642;28;20451;-75
2020/12/23 12:26:40;;;;;;;3.50;3.20;;;12.70;99.90;;;;;;4951366;28;21093;-75
2020/12/23 12:29:08;;;;;;;4.43;3.30;;;12.70;99.90;;;;;;4946156;28;20478;-75
2020/12/23 12:31:34;;;;;;;3.70;3.23;;;12.60;99.90;;;;;;4960449;28;20431;-76
2020/12/23 12:34:05;;;;;;;5.10;3.37;;;12.60;99.90;;;;;;4964542;28;20580;-76
2020/12/23 12:36:34;;;;;;;3.93;2.97;;;12.60;99.90;;;;;;4951931;28;20457;-76
2020/12/23 12:39:00;;;;;;;4.70;2.80;;;12.60;99.90;;;;;;4928286;28;20431;-78
2020/12/23 12:41:31;;;;;;;4.80;3.37;;;12.60;99.90;;;;;;4948258;28;20475;-76
2020/12/23 12:43:58;;;;;;;4.93;2.27;;;12.50;99.90;;;;;;4953304;28;20963;-75
2020/12/23 12:46:24;;;;;;;2.27;1.90;;;12.50;99.90;;;;;;4959408;28;20456;-76